Carver, MN (55315)

1:42 AM CST on February 09, 2016 (GMT -0600)
Carver Bluffs, Carver Minnesota | | Change Station
CLOSE
Current Station
Personal Weather Station
Location: Carver, MN
Elevation: 837 ft
Nearby Weather Stations

Elev 837 ft 44.75 °N, 93.65 °W | Updated 211 days ago

Mostly Cloudy
Mostly Cloudy
8 °F
Feels Like -10 °F
N
18
Wind Variable Wind from NNW
Gusts 30 mph

Today
High -- | Low -- °F
--% Chance of Precip.
Yesterday
High -- | Low -- °F
Precip. -- in
Pressure 30.04 in
Visibility 10.0 miles
Clouds Overcast 5000 ft
Windchill -10 °F
Dew Point 1 °F
Humidity 74%
Rainfall in
Snow Depth Not available.
7:24 AM 5:34 PM
New Moon, 1% visible
METAR KFCM 090653Z AUTO 35015G23KT 10SM OVC050 M11/M17 A2999 RMK AO2 SLP173 T11111167
Pressure 30.04 in
Visibility 10.0 miles
Clouds Overcast 5000 ft
Windchill -10 °F
Dew Point 1 °F
Humidity 74%
Rainfall in
Snow Depth Not available.
7:24 AM 5:34 PM
New Moon, 1% visible
METAR KFCM 090653Z AUTO 35015G23KT 10SM OVC050 M11/M17 A2999 RMK AO2 SLP173 T11111167

10-Day Weather Forecast

Almanac

Astronomy

Feb. 09, 2016 Rise Set
Actual Time
Civil Twilight
Nautical Twilight
Astronomical Twilight
Moon
Length of Visible Light
Length of Day
Tomorrow will be .
, % of the Moon is Illuminated

Today's Extremes

State Highs State Lows

Community

WunderPhotos

Upload Photos

1,891,571 photos uploaded!

WunderBlog® & News

Nearby

Air Quality

  Air Quality AQ Index Pollutant
Not available.

Snow Depth

Station Depth Elevation

Earthquake Activity

City Distance Mag. Time & Date
Minimum magnitude displayed is 2.5.

Coastal Water Temperatures

Place Temperature

Stations

Nearby Weather Stations

Station Location Temp. Windchill Dew Point Humidity Wind Precip. Elev Updated Type
                   

Watches & Warnings

There are currently no watches in effect.